Pittston Township, Pennsylvania
Current Conditions -  °F | °C
As of 10:54 PM on Monday 20 Oct 2014 (Local Time) from KAVP Reporting Station
Overcast Overcast  
Wind Chill: 12°   Ceiling: 9000
Heat Index: 12°   Visibility: 10mi
Dew Point:   Wind: 6mph
Humidity: 62%   Direction: 250°WSW
Pressure: 29.92"   Gusts: NA
Location:  41.2973°N, 75.7399°W
Report Text: KAVP 210254Z AUTO 25005KT 10SM OVC090 12/05 A2992 RMK AO2 SLP132 T01220050 50002
Loading
Personal Weather Stations






























Interactive Weather Map
Tropical Storm Tracking
New forecast layout! Learn more

10-Day Weather Forecast

Advertisements
Track Severe Weather on mobile